Terminal Aerodrome Forecast
Issued by NWS

Home | Current Version | Previous Version | Text Only | Print | Product List | Glossary On
Versions: 1 2 3 4 5 6 7 8 9 10 11 12 13 14 15 16 17 18 19
000
FTPA31 PHFO 291757 AAA
TAFHMK
TAF AMD
PHMK 291757Z 2918/3018 35012KT 5SM -SHRA BKN012 OVC025
     FM292200 35012KT P6SM VCSH SCT012 BKN025 OVC045
     FM301200 02006KT P6SM VCSH SCT025 BKN045 OVC060=

USA.gov is the U.S. government's official web portal to all federal, state and local government web resources and services.